Time;durP1;ratioP1;P1;durP2;ratioP2;P2;SDS_P1;SDS_P2;PMS_P1;PMS_P2;Temp;Humidity;BMP_temperature;BMP_pressure;BME280_temperature;BME280_humidity;BME280_pressure;Samples;Min_cycle;Max_cycle;Signal;HPM_P1;HPM_P2
2021/03/17 00:02:29;;;;;;;24.87;11.57;;;;;;;4.43;64.86;99353.05;1625741;88;22012;-71
2021/03/17 00:05:21;;;;;;;23.87;11.73;;;;;;;4.42;64.98;99352.73;1625772;88;21118;-71
2021/03/17 00:08:07;;;;;;;21.07;11.60;;;;;;;4.44;65.03;99350.67;1626817;88;21707;-71
2021/03/17 00:10:54;;;;;;;20.20;11.88;;;;;;;4.45;65.00;99351.84;1625781;88;21071;-70
2021/03/17 00:13:42;;;;;;;22.62;11.57;;;;;;;4.49;64.98;99343.34;1625747;88;21119;-71
2021/03/17 00:16:28;;;;;;;16.07;9.48;;;;;;;4.51;64.92;99348.06;1625864;88;21118;-72
2021/03/17 00:19:15;;;;;;;23.35;12.00;;;;;;;4.51;64.84;99340.77;1625752;88;21131;-72
2021/03/17 00:22:01;;;;;;;20.30;10.20;;;;;;;4.49;64.84;99339.27;1625779;88;21118;-71
2021/03/17 00:24:48;;;;;;;19.25;8.90;;;;;;;4.46;64.62;99336.41;1625999;88;21771;-71
2021/03/17 00:27:34;;;;;;;18.20;9.90;;;;;;;4.41;64.66;99335.61;1625746;88;21341;-71
2021/03/17 00:30:21;;;;;;;23.22;9.43;;;;;;;4.37;64.59;99335.66;1625726;88;21117;-71
2021/03/17 00:33:10;;;;;;;15.98;8.95;;;;;;;4.33;64.72;99342.47;1625823;88;21833;-72
2021/03/17 00:35:56;;;;;;;21.40;9.35;;;;;;;4.37;65.00;99336.17;1625704;88;21492;-71
2021/03/17 00:38:43;;;;;;;26.52;9.10;;;;;;;4.41;64.96;99334.77;1625483;88;21381;-71
2021/03/17 00:41:29;;;;;;;17.10;7.70;;;;;;;4.44;65.00;99337.12;1629537;87;21385;-71
2021/03/17 00:44:15;;;;;;;19.25;8.38;;;;;;;4.44;64.68;99337.12;1625738;88;21374;-71
2021/03/17 00:47:02;;;;;;;19.77;8.40;;;;;;;4.34;64.81;99344.16;1625674;88;21262;-72
2021/03/17 00:49:30;;;;;;;14.75;8.40;;;;;;;4.32;64.89;99348.08;1625739;88;21098;-72
2021/03/17 00:51:58;;;;;;;15.95;8.15;;;;;;;4.27;65.00;99343.20;1625762;88;21111;-72
2021/03/17 00:54:43;;;;;;;20.45;8.10;;;;;;;4.27;65.12;99347.78;1625696;88;21139;-72
2021/03/17 00:57:25;;;;;;;14.95;7.83;;;;;;;4.31;65.15;99339.61;1631709;86;21202;-72
2021/03/17 00:59:53;;;;;;;16.35;7.85;;;;;;;4.37;65.10;99341.59;1639274;87;21095;-72
2021/03/17 01:02:20;;;;;;;16.15;7.62;;;;;;;4.39;65.07;99339.02;1639237;87;21347;-72
2021/03/17 01:04:48;;;;;;;17.52;8.03;;;;;;;4.39;65.14;99335.47;1639398;86;21090;-71
2021/03/17 01:07:19;;;;;;;14.80;7.70;;;;;;;4.41;65.07;99331.55;1639180;87;21767;-71
2021/03/17 01:09:46;;;;;;;16.15;7.10;;;;;;;4.46;64.98;99330.48;1639208;86;21095;-71
2021/03/17 01:12:15;;;;;;;16.60;7.50;;;;;;;4.47;64.89;99329.97;1639124;87;21098;-72
2021/03/17 01:14:45;;;;;;;15.15;7.60;;;;;;;4.47;64.79;99329.97;1639272;87;21337;-70
2021/03/17 01:17:13;;;;;;;14.78;7.00;;;;;;;4.46;64.79;99334.55;1639231;87;21217;-72
2021/03/17 01:19:40;;;;;;;15.75;7.28;;;;;;;4.48;64.77;99331.65;1639184;87;21123;-72
2021/03/17 01:22:07;;;;;;;12.50;7.10;;;;;;;4.46;64.58;99330.99;1639160;87;21083;-70
2021/03/17 01:24:35;;;;;;;20.20;7.30;;;;;;;4.43;64.58;99330.84;1644482;86;21063;-72
2021/03/17 01:27:03;;;;;;;16.77;7.75;;;;;;;4.42;64.51;99326.97;1639168;87;21353;-71
2021/03/17 01:29:30;;;;;;;15.38;7.10;;;;;;;4.43;64.48;99331.36;1639233;87;21051;-72
2021/03/17 01:31:58;;;;;;;15.10;7.58;;;;;;;4.42;64.53;99329.16;1639909;86;21186;-71
2021/03/17 01:34:25;;;;;;;11.80;6.72;;;;;;;4.38;64.32;99326.49;1639171;87;21123;-70
2021/03/17 01:36:53;;;;;;;15.75;7.55;;;;;;;4.35;64.38;99331.44;1639211;87;21379;-72
2021/03/17 01:39:20;;;;;;;16.00;7.65;;;;;;;4.27;64.44;99324.23;1646346;85;21267;-70
2021/03/17 01:41:47;;;;;;;18.07;7.83;;;;;;;4.25;64.75;99321.37;1648069;87;21068;-71
2021/03/17 01:44:15;;;;;;;12.95;7.37;;;;;;;4.25;64.87;99324.08;1648119;86;21066;-72
2021/03/17 01:46:44;;;;;;;13.38;7.33;;;;;;;4.22;64.86;99319.87;1652637;86;21319;-71
2021/03/17 01:49:12;;;;;;;11.20;6.47;;;;;;;4.20;64.92;99325.14;1655462;86;21304;-71
2021/03/17 01:51:39;;;;;;;18.17;7.15;;;;;;;4.17;64.90;99314.67;1655449;86;21349;-71
2021/03/17 01:54:09;;;;;;;23.32;8.10;;;;;;;4.16;64.91;99308.41;1655466;86;21086;-72
2021/03/17 01:56:36;;;;;;;14.95;7.17;;;;;;;4.19;65.01;99312.62;1655554;86;21436;-71
2021/03/17 01:59:04;;;;;;;16.55;8.20;;;;;;;4.22;65.01;99310.38;1656862;86;21017;-71
2021/03/17 02:01:32;;;;;;;25.62;8.55;;;;;;;4.22;65.12;99309.53;1656776;86;21092;-70
2021/03/17 02:04:02;;;;;;;23.60;8.80;;;;;;;4.23;65.00;99319.36;1655550;86;21109;-71
2021/03/17 02:06:29;;;;;;;25.80;8.83;;;;;;;4.23;65.03;99316.13;1655412;86;21100;-70
2021/03/17 02:08:57;;;;;;;15.83;8.13;;;;;;;4.17;64.94;99311.44;1655381;86;21227;-70
2021/03/17 02:11:24;;;;;;;18.00;8.68;;;;;;;4.16;65.02;99317.05;1655529;86;21085;-71
2021/03/17 02:14:22;;;;;;;21.57;8.58;;;;;;;4.13;65.20;99315.03;1654992;86;21081;-70
2021/03/17 02:16:58;;;;;;;16.00;8.15;;;;;;;4.17;65.31;99315.52;1655131;86;21721;-71
2021/03/17 02:20:06;;;;;;;21.23;7.83;;;;;;;4.23;65.28;99312.58;1655045;86;21192;-71
2021/03/17 02:22:50;;;;;;;20.15;8.08;;;;;;;4.28;65.05;99315.58;1655469;86;21300;-72
2021/03/17 02:25:46;;;;;;;14.58;7.40;;;;;;;4.32;64.97;99311.47;1655433;86;21081;-71
2021/03/17 02:28:31;;;;;;;17.12;6.97;;;;;;;4.35;64.69;99317.88;1655447;86;21827;-70
2021/03/17 02:31:14;;;;;;;19.23;7.72;;;;;;;4.34;64.49;99315.69;1655490;86;21061;-71
2021/03/17 02:34:01;;;;;;;24.23;7.42;;;;;;;4.32;64.30;99312.83;1654591;86;21113;-71
2021/03/17 02:36:58;;;;;;;19.05;8.20;;;;;;;4.31;64.09;99320.12;1655540;86;21305;-71
2021/03/17 02:39:30;;;;;;;19.07;7.50;;;;;;;4.25;64.02;99306.46;1655430;86;21085;-72
2021/03/17 02:42:05;;;;;;;18.07;7.75;;;;;;;4.24;64.19;99312.91;1655394;86;21176;-70
2021/03/17 02:44:33;;;;;;;18.90;8.28;;;;;;;4.21;63.91;99313.27;1655425;86;21470;-72
2021/03/17 02:47:01;;;;;;;20.27;7.78;;;;;;;4.18;64.03;99313.64;1651048;86;21366;-71
2021/03/17 02:49:33;;;;;;;20.52;7.22;;;;;;;4.14;64.07;99304.52;1647993;87;21348;-70
2021/03/17 02:52:01;;;;;;;23.05;7.83;;;;;;;4.16;64.09;99303.49;1648206;87;21077;-71
2021/03/17 02:54:28;;;;;;;29.42;8.80;;;;;;;4.14;64.07;99301.81;1648007;86;21098;-69
2021/03/17 02:56:59;;;;;;;27.87;8.85;;;;;;;4.18;64.15;99306.86;1648150;87;21325;-71
2021/03/17 02:59:27;;;;;;;22.87;8.40;;;;;;;4.21;64.17;99303.79;1648018;86;21216;-71
2021/03/17 03:01:58;;;;;;;13.83;7.67;;;;;;;4.24;64.09;99306.13;1648256;87;21216;-71
2021/03/17 03:04:26;;;;;;;18.82;8.03;;;;;;;4.26;63.83;99304.92;1648063;86;21113;-71
2021/03/17 03:06:55;;;;;;;12.75;7.50;;;;;;;4.26;63.63;99304.08;1648131;86;21962;-71
2021/03/17 03:09:23;;;;;;;16.35;7.37;;;;;;;4.24;63.59;99302.06;1648058;87;21755;-72
2021/03/17 03:11:52;;;;;;;16.12;7.17;;;;;;;4.25;63.58;99298.33;1648145;87;21316;-71
2021/03/17 03:14:24;;;;;;;19.60;7.00;;;;;;;4.21;63.53;99297.85;1648053;86;21328;-71
2021/03/17 03:16:55;;;;;;;13.72;6.95;;;;;;;4.20;63.56;99301.59;1648170;87;21081;-72
2021/03/17 03:19:25;;;;;;;13.68;7.10;;;;;;;4.20;63.44;99302.10;1651622;87;21335;-70
2021/03/17 03:21:53;;;;;;;17.65;7.22;;;;;;;4.18;63.38;99304.16;1648158;87;21237;-71
2021/03/17 03:24:21;;;;;;;19.37;7.25;;;;;;;4.18;63.40;99307.70;1648032;87;21300;-70
2021/03/17 03:26:57;;;;;;;17.48;7.50;;;;;;;4.20;63.38;99307.01;1648016;86;21328;-72
2021/03/17 03:29:27;;;;;;;20.57;7.75;;;;;;;4.19;63.45;99300.42;1648031;87;21240;-71
2021/03/17 03:31:55;;;;;;;15.80;7.58;;;;;;;4.21;63.54;99297.02;1648220;86;21259;-71
2021/03/17 03:34:23;;;;;;;19.00;7.92;;;;;;;4.23;63.47;99299.86;1648067;86;21337;-71
2021/03/17 03:36:50;;;;;;;22.42;7.72;;;;;;;4.17;63.31;99298.41;1648107;86;21329;-70
2021/03/17 03:39:18;;;;;;;16.07;7.50;;;;;;;4.09;63.59;99298.81;1647913;86;21317;-70
2021/03/17 03:41:45;;;;;;;15.10;7.55;;;;;;;4.08;63.71;99294.41;1648023;86;21329;-71
2021/03/17 03:44:13;;;;;;;11.93;7.75;;;;;;;4.09;63.83;99293.90;1648072;86;21340;-71
2021/03/17 03:46:41;;;;;;;13.48;7.83;;;;;;;4.10;63.94;99299.66;1651643;84;21219;-71
2021/03/17 03:49:09;;;;;;;18.65;8.38;;;;;;;4.13;63.91;99306.06;1717690;83;21156;-70
2021/03/17 03:51:46;;;;;;;19.10;8.78;;;;;;;4.15;63.87;99304.01;1717761;83;21086;-71
2021/03/17 03:54:55;;;;;;;18.02;8.23;;;;;;;4.13;63.80;99301.48;1717960;83;21047;-71
2021/03/17 03:57:26;;;;;;;18.32;8.28;;;;;;;4.09;64.02;99302.03;1717534;83;21062;-70
2021/03/17 03:59:57;;;;;;;15.48;8.20;;;;;;;4.08;64.06;99303.90;1717747;83;21306;-71
2021/03/17 04:02:27;;;;;;;17.92;8.18;;;;;;;4.09;64.24;99304.74;1715415;83;21134;-70
2021/03/17 04:04:56;;;;;;;14.65;8.18;;;;;;;4.11;64.09;99299.47;1693632;83;21186;-70
2021/03/17 04:07:24;;;;;;;16.02;8.15;;;;;;;4.10;64.06;99299.66;1667681;84;21089;-71
2021/03/17 04:09:52;;;;;;;18.20;7.83;;;;;;;4.07;64.12;99297.30;1717657;83;21070;-70
2021/03/17 04:12:21;;;;;;;17.42;8.38;;;;;;;4.09;64.29;99293.90;1717785;83;21281;-71
2021/03/17 04:14:51;;;;;;;18.17;8.15;;;;;;;4.04;64.09;99294.45;1718559;83;21054;-70
2021/03/17 04:17:38;;;;;;;21.62;9.25;;;;;;;3.96;64.16;99292.32;1719256;82;21141;-72
2021/03/17 04:20:08;;;;;;;16.27;7.87;;;;;;;3.91;64.32;99284.74;1692603;84;21095;-72
2021/03/17 04:22:37;;;;;;;17.55;8.25;;;;;;;3.92;64.45;99290.49;1692604;84;21834;-72
2021/03/17 04:25:06;;;;;;;19.32;8.38;;;;;;;3.88;64.56;99302.69;1717629;83;21786;-72
2021/03/17 04:27:34;;;;;;;19.92;9.03;;;;;;;3.92;64.71;99286.94;1692572;84;21387;-70
2021/03/17 04:30:04;;;;;;;16.00;8.33;;;;;;;3.96;64.78;99287.75;1717649;83;21331;-70
2021/03/17 04:32:32;;;;;;;12.90;7.80;;;;;;;4.04;64.73;99282.77;1717651;83;21912;-71
2021/03/17 04:35:00;;;;;;;14.93;7.83;;;;;;;4.05;64.38;99282.58;1691791;84;21105;-70
2021/03/17 04:37:29;;;;;;;16.52;7.95;;;;;;;3.99;64.27;99286.02;1717920;83;21106;-70
2021/03/17 04:39:58;;;;;;;15.48;7.65;;;;;;;4.00;64.44;99289.58;1695905;84;21093;-71
2021/03/17 04:42:25;;;;;;;15.13;7.65;;;;;;;4.04;64.38;99284.97;1717764;83;21478;-71
2021/03/17 04:44:55;;;;;;;21.07;8.10;;;;;;;4.05;64.33;99281.73;1717798;83;21051;-71
2021/03/17 04:47:22;;;;;;;16.52;7.58;;;;;;;4.08;64.27;99278.66;1715435;83;21366;-72
2021/03/17 04:49:50;;;;;;;19.12;8.08;;;;;;;4.10;64.20;99277.45;1690126;85;21313;-72
2021/03/17 04:52:18;;;;;;;15.10;8.18;;;;;;;4.13;64.25;99277.59;1712596;83;21070;-72
2021/03/17 04:54:46;;;;;;;20.82;7.85;;;;;;;4.17;64.37;99278.07;1712400;83;21340;-71
2021/03/17 04:57:17;;;;;;;16.27;7.90;;;;;;;4.23;64.12;99275.98;1686158;85;21090;-72
2021/03/17 04:59:44;;;;;;;19.25;7.72;;;;;;;4.27;64.02;99282.72;1679952;85;21225;-71
2021/03/17 05:02:12;;;;;;;15.20;7.67;;;;;;;4.28;63.77;99273.55;1680094;85;21994;-71
2021/03/17 05:04:40;;;;;;;13.08;7.40;;;;;;;4.25;63.67;99282.06;1652089;85;21086;-70
2021/03/17 05:07:08;;;;;;;22.65;8.43;;;;;;;4.23;63.75;99275.98;1680191;84;21107;-71
2021/03/17 05:09:35;;;;;;;21.85;8.13;;;;;;;4.17;63.74;99276.20;1680008;85;21817;-72
2021/03/17 05:12:06;;;;;;;18.45;7.80;;;;;;;4.14;63.74;99270.64;1680155;85;21087;-71
2021/03/17 05:14:33;;;;;;;24.20;8.30;;;;;;;4.12;63.83;99268.63;1680066;85;21062;-70
2021/03/17 05:17:03;;;;;;;17.12;7.85;;;;;;;4.16;64.07;99270.45;1675636;85;21082;-69
2021/03/17 05:19:31;;;;;;;15.40;7.75;;;;;;;4.23;64.22;99271.40;1680164;85;21315;-71
2021/03/17 05:21:59;;;;;;;15.32;7.80;;;;;;;4.29;63.91;99272.02;1680082;85;21282;-71
2021/03/17 05:24:26;;;;;;;15.53;7.75;;;;;;;4.33;63.89;99273.84;1680239;85;21090;-70
2021/03/17 05:26:55;;;;;;;18.45;7.53;;;;;;;4.35;63.83;99272.62;1680388;85;21416;-71
2021/03/17 05:29:24;;;;;;;16.40;7.72;;;;;;;4.34;63.59;99275.53;1680189;85;21070;-72
2021/03/17 05:31:52;;;;;;;17.65;7.97;;;;;;;4.33;63.68;99272.48;1680144;85;21305;-71
2021/03/17 05:34:20;;;;;;;15.38;8.15;;;;;;;4.34;63.62;99279.59;1680134;85;21169;-70
2021/03/17 05:36:48;;;;;;;18.07;7.30;;;;;;;4.35;63.48;99269.92;1680148;85;21254;-71
2021/03/17 05:39:15;;;;;;;15.38;7.30;;;;;;;4.36;63.51;99287.88;1676689;85;21074;-71
2021/03/17 05:41:43;;;;;;;17.12;7.87;;;;;;;4.36;63.45;99281.61;1675720;85;21198;-71
2021/03/17 05:44:10;;;;;;;16.82;7.58;;;;;;;4.42;63.50;99283.58;1675772;85;21274;-72
2021/03/17 05:46:39;;;;;;;14.83;7.58;;;;;;;4.45;63.41;99278.63;1677510;85;21051;-72
2021/03/17 05:49:07;;;;;;;19.60;7.83;;;;;;;4.48;63.42;99281.47;1675508;85;21075;-72
2021/03/17 05:51:35;;;;;;;15.32;7.70;;;;;;;4.53;63.28;99279.56;1673454;85;21295;-73
2021/03/17 05:54:04;;;;;;;11.97;6.75;;;;;;;4.53;63.36;99280.92;1675481;85;21079;-71
2021/03/17 05:56:32;;;;;;;17.65;6.87;;;;;;;4.57;63.16;99276.32;1673502;85;21817;-72
2021/03/17 05:59:01;;;;;;;18.02;6.58;;;;;;;4.61;63.07;99284.92;1676240;85;21059;-73
2021/03/17 06:01:29;;;;;;;18.00;7.92;;;;;;;4.63;62.87;99289.14;1675606;85;21721;-71
2021/03/17 06:03:57;;;;;;;16.62;7.53;;;;;;;4.64;62.77;99289.47;1673801;85;21305;-71
2021/03/17 06:06:24;;;;;;;14.50;6.87;;;;;;;4.66;62.62;99295.55;1673575;85;21117;-72
2021/03/17 06:08:52;;;;;;;15.18;6.85;;;;;;;4.67;62.50;99296.39;1673834;85;21324;-73
2021/03/17 06:11:19;;;;;;;14.78;7.58;;;;;;;4.69;62.51;99291.10;1674115;85;21039;-72
2021/03/17 06:13:50;;;;;;;17.50;6.65;;;;;;;4.70;62.41;99293.30;1673484;85;21082;-71
2021/03/17 06:16:21;;;;;;;11.43;6.75;;;;;;;4.70;62.16;99290.59;1675497;85;21186;-69
2021/03/17 06:18:56;;;;;;;22.60;7.10;;;;;;;4.69;62.01;99292.97;1673589;85;21285;-72
2021/03/17 06:21:23;;;;;;;16.67;8.63;;;;;;;4.65;62.14;99288.95;1673546;85;21182;-71
2021/03/17 06:23:51;;;;;;;12.05;7.10;;;;;;;4.67;62.36;99284.18;1673580;85;21135;-71
2021/03/17 06:26:19;;;;;;;15.85;6.45;;;;;;;4.70;62.36;99289.23;1673514;85;21075;-72
2021/03/17 06:28:46;;;;;;;22.35;8.25;;;;;;;4.74;62.20;99287.83;1673554;85;21427;-73
2021/03/17 06:31:16;;;;;;;20.95;7.97;;;;;;;4.75;62.10;99280.85;1673292;85;21931;-70
2021/03/17 06:33:44;;;;;;;16.30;6.62;;;;;;;4.77;62.17;99285.58;1673476;85;21364;-71
2021/03/17 06:36:18;;;;;;;15.18;6.62;;;;;;;4.82;62.06;99284.17;1673571;85;21070;-72
2021/03/17 06:38:48;;;;;;;19.80;7.95;;;;;;;4.83;61.94;99280.43;1673674;85;21032;-72
2021/03/17 06:41:16;;;;;;;17.92;7.50;;;;;;;4.81;61.91;99279.78;1673657;85;21325;-70
2021/03/17 06:43:48;;;;;;;19.77;7.47;;;;;;;4.82;61.96;99281.45;1673425;85;21078;-72
2021/03/17 06:46:18;;;;;;;14.00;6.80;;;;;;;4.87;62.09;99284.45;1673587;85;21162;-73
2021/03/17 06:48:47;;;;;;;17.23;6.80;;;;;;;4.95;61.87;99280.28;1671534;85;21811;-71
2021/03/17 06:51:19;;;;;;;21.27;6.42;;;;;;;5.01;61.60;99282.23;1673656;85;21366;-71
2021/03/17 06:53:56;;;;;;;16.30;7.10;;;;;;;5.05;61.44;99280.82;1675035;85;21099;-71
2021/03/17 06:56:27;;;;;;;;;;;;;;;4.99;61.14;99276.16;1676711;85;21080;-71
2021/03/17 06:58:58;;;;;;;16.93;7.15;;;;;;;4.97;61.40;99280.92;1675663;85;20250;-72
2021/03/17 07:01:38;;;;;;;16.67;7.00;;;;;;;5.01;61.40;99283.59;1674017;85;21309;-72
2021/03/17 07:04:12;;;;;;;14.05;7.15;;;;;;;5.08;61.31;99284.52;1675636;85;21103;-72
2021/03/17 07:06:44;;;;;;;13.55;6.87;;;;;;;5.08;61.07;99284.52;1675588;85;21529;-72
2021/03/17 07:09:25;;;;;;;12.00;7.05;;;;;;;5.11;61.02;99290.92;1673598;85;21466;-71
2021/03/17 07:12:08;;;;;;;20.62;7.53;;;;;;;5.11;61.14;99286.84;1673741;85;21066;-73
2021/03/17 07:14:41;;;;;;;15.63;6.95;;;;;;;5.09;60.60;99284.84;1674519;85;21383;-71
2021/03/17 07:17:29;;;;;;;18.65;7.53;;;;;;;5.00;60.75;99287.34;1673654;85;21802;-73
2021/03/17 07:19:57;;;;;;;17.00;7.92;;;;;;;5.02;60.95;99287.98;1676055;85;21095;-72
2021/03/17 07:22:25;;;;;;;19.37;7.95;;;;;;;5.08;60.94;99284.00;1673796;85;21079;-73
2021/03/17 07:25:01;;;;;;;17.75;8.23;;;;;;;5.17;61.08;99276.58;1673670;85;21059;-72
2021/03/17 07:27:30;;;;;;;16.90;7.80;;;;;;;5.26;61.03;99272.75;1673582;85;21103;-72
2021/03/17 07:30:08;;;;;;;19.67;7.17;;;;;;;5.33;60.61;99281.82;1673616;85;21063;-70
2021/03/17 07:33:00;;;;;;;14.35;7.12;;;;;;;5.35;60.48;99274.84;1674399;85;21585;-72
2021/03/17 07:35:35;;;;;;;15.35;7.97;;;;;;;5.43;60.44;99273.88;1673459;85;21082;-70
2021/03/17 07:38:14;;;;;;;17.55;7.40;;;;;;;5.46;60.28;99272.98;1673590;85;21047;-73
2021/03/17 07:40:46;;;;;;;21.25;7.80;;;;;;;5.52;60.09;99268.13;1675433;85;21113;-73
2021/03/17 07:43:16;;;;;;;23.45;8.98;;;;;;;5.51;59.84;99272.40;1674193;85;21307;-73
2021/03/17 07:45:43;;;;;;;20.50;7.85;;;;;;;5.52;60.06;99278.16;1673693;85;21309;-72
2021/03/17 07:48:13;;;;;;;22.48;8.28;;;;;;;5.56;60.01;99282.17;1674461;85;21131;-72
2021/03/17 07:50:42;;;;;;;21.25;8.35;;;;;;;5.59;59.96;99276.34;1670783;85;21257;-72
2021/03/17 07:53:18;;;;;;;18.57;8.10;;;;;;;5.64;59.88;99275.25;1670971;85;21282;-71
2021/03/17 07:55:46;;;;;;;22.70;9.60;;;;;;;5.67;59.67;99282.50;1670797;85;21280;-72
2021/03/17 07:58:14;;;;;;;19.62;8.03;;;;;;;5.70;59.64;99282.11;1670894;86;21304;-72
2021/03/17 08:00:42;;;;;;;14.38;7.35;;;;;;;5.69;59.52;99289.09;1670696;85;21172;-72
2021/03/17 08:03:12;;;;;;;21.15;7.65;;;;;;;5.66;59.39;99284.89;1671349;86;21127;-73
2021/03/17 08:05:41;;;;;;;19.55;7.92;;;;;;;5.61;59.66;99279.71;1636345;85;21053;-73
2021/03/17 08:08:10;;;;;;;18.10;7.80;;;;;;;5.62;59.82;99284.11;1642061;85;21239;-73
2021/03/17 08:10:44;;;;;;;17.57;7.75;;;;;;;5.64;59.82;99275.25;1645210;86;21132;-71
2021/03/17 08:13:15;;;;;;;20.48;8.53;;;;;;;5.62;59.75;99276.80;1668236;85;21059;-72
2021/03/17 08:15:44;;;;;;;16.67;7.15;;;;;;;5.56;59.97;99283.52;1663184;84;21343;-72
2021/03/17 08:18:36;;;;;;;17.20;7.65;;;;;;;5.54;60.12;99275.56;1657519;86;21058;-72
2021/03/17 08:21:05;;;;;;;14.90;7.10;;;;;;;5.57;60.28;99273.83;1628835;88;21334;-72
2021/03/17 08:23:48;;;;;;;17.98;7.47;;;;;;;5.63;60.23;99273.56;1654321;86;21345;-71
2021/03/17 08:26:27;;;;;;;11.78;7.17;;;;;;;5.65;60.11;99274.22;1659003;86;21063;-72
2021/03/17 08:28:56;;;;;;;16.55;7.42;;;;;;;5.64;60.26;99280.17;1656855;86;21204;-72
2021/03/17 08:31:42;;;;;;;22.95;8.43;;;;;;;5.70;60.11;99278.55;1657121;86;21261;-72
2021/03/17 08:34:23;;;;;;;14.23;7.28;;;;;;;5.71;60.02;99268.84;1656902;86;21345;-71
2021/03/17 08:36:58;;;;;;;16.00;7.33;;;;;;;5.74;60.12;99275.77;1658860;86;21131;-72
2021/03/17 08:39:37;;;;;;;15.93;7.05;;;;;;;5.78;60.08;99268.91;1644985;86;21921;-72
2021/03/17 08:42:09;;;;;;;15.95;7.42;;;;;;;5.82;59.92;99272.92;1649626;86;21323;-70
2021/03/17 08:44:43;;;;;;;14.70;7.37;;;;;;;5.84;59.97;99277.64;1657135;85;21840;-71
2021/03/17 08:47:28;;;;;;;19.48;8.40;;;;;;;5.91;60.10;99271.81;1651255;84;21293;-72
2021/03/17 08:50:00;;;;;;;20.70;8.23;;;;;;;6.00;59.85;99269.28;1658117;86;21099;-72
2021/03/17 08:52:38;;;;;;;17.45;8.58;;;;;;;6.07;59.75;99269.33;1662797;84;21213;-68
2021/03/17 08:55:12;;;;;;;16.30;7.28;;;;;;;6.11;59.49;99269.27;1665951;85;21111;-79
2021/03/17 08:58:03;;;;;;;16.93;7.33;;;;;;;6.13;59.17;99271.78;1659884;84;21117;-69
2021/03/17 09:00:59;;;;;;;18.57;6.90;;;;;;;6.09;59.10;99272.70;1655798;85;21887;-72
2021/03/17 09:03:34;;;;;;;17.52;7.67;;;;;;;6.08;59.28;99274.25;1664513;84;21252;-71
2021/03/17 09:06:15;;;;;;;17.17;7.72;;;;;;;6.09;59.28;99275.41;1661294;85;21115;-72
2021/03/17 09:09:17;;;;;;;13.78;6.92;;;;;;;6.15;59.20;99270.55;1670090;84;21328;-72
2021/03/17 09:11:50;;;;;;;13.70;7.45;;;;;;;6.23;59.00;99266.84;1671072;85;21102;-71
2021/03/17 09:14:24;;;;;;;15.28;6.87;;;;;;;6.24;58.79;99275.33;1660288;85;21922;-72
2021/03/17 09:17:22;;;;;;;17.20;8.03;;;;;;;6.27;58.84;99273.05;1668486;86;21113;-70
2021/03/17 09:20:01;;;;;;;15.40;7.62;;;;;;;6.31;58.65;99271.62;1678101;84;21247;-72
2021/03/17 09:22:44;;;;;;;17.70;7.33;;;;;;;6.30;58.22;99271.30;1669832;84;21146;-75
2021/03/17 09:25:20;;;;;;;12.80;6.95;;;;;;;6.33;58.33;99274.98;1648370;85;21093;-73
2021/03/17 09:28:03;;;;;;;18.52;6.90;;;;;;;6.42;58.30;99278.91;1655075;86;21090;-76
2021/03/17 09:30:35;;;;;;;19.92;8.03;;;;;;;6.48;58.14;99282.20;1660907;86;21187;-73
2021/03/17 09:33:11;;;;;;;15.63;7.08;;;;;;;6.51;57.98;99278.59;1641599;85;21428;-75
2021/03/17 09:35:40;;;;;;;16.12;7.20;;;;;;;6.56;58.09;99284.27;1656117;85;21205;-76
2021/03/17 09:38:10;;;;;;;15.93;7.08;;;;;;;6.63;57.76;99282.95;1664066;85;21133;-76
2021/03/17 09:40:45;;;;;;;14.70;8.18;;;;;;;6.60;57.40;99291.00;1664227;85;21106;-75
2021/03/17 09:43:34;;;;;;;17.02;6.67;;;;;;;6.61;57.43;99280.44;1662179;85;21094;-75
2021/03/17 09:46:25;;;;;;;13.60;7.05;;;;;;;6.65;57.31;99287.67;1654298;86;21121;-67
2021/03/17 09:48:55;;;;;;;14.47;6.72;;;;;;;6.68;57.07;99288.12;1650575;86;21132;-66
2021/03/17 09:51:26;;;;;;;20.17;6.80;;;;;;;6.67;57.23;99287.80;1656546;85;21380;-65
2021/03/17 09:53:54;;;;;;;17.62;6.83;;;;;;;6.71;57.23;99299.65;1636393;86;21281;-67
2021/03/17 09:56:49;;;;;;;17.00;6.58;;;;;;;6.78;57.26;99288.27;1637001;85;21971;-65
2021/03/17 09:59:27;;;;;;;14.20;6.97;;;;;;;6.78;57.08;99289.64;1658757;85;21784;-69
2021/03/17 10:02:04;;;;;;;12.90;6.47;;;;;;;6.68;56.67;99283.20;1645244;86;21081;-67
2021/03/17 10:04:45;;;;;;;14.07;6.50;;;;;;;6.61;57.12;99284.52;1649865;86;21854;-67
2021/03/17 10:07:22;;;;;;;17.45;6.37;;;;;;;6.63;57.20;99277.52;1642878;85;21124;-70
2021/03/17 10:09:52;;;;;;;17.05;6.62;;;;;;;6.67;57.38;99278.27;1652012;86;21902;-69
2021/03/17 10:12:34;;;;;;;12.30;5.95;;;;;;;6.74;56.97;99278.83;1669400;85;21101;-71
2021/03/17 10:15:19;;;;;;;17.23;6.40;;;;;;;6.77;56.89;99277.91;1659152;85;21240;-66
2021/03/17 10:17:54;;;;;;;16.25;5.95;;;;;;;6.83;56.69;99285.79;1640683;86;21799;-70
2021/03/17 10:20:29;;;;;;;13.75;5.55;;;;;;;6.81;56.50;99279.19;1644423;86;21844;-71
2021/03/17 10:23:02;;;;;;;14.75;6.30;;;;;;;6.78;56.40;99277.39;1627501;85;21158;-74
2021/03/17 10:25:39;;;;;;;15.30;5.92;;;;;;;6.70;56.72;99274.83;1640858;85;21147;-72
2021/03/17 10:28:15;;;;;;;14.78;5.83;;;;;;;6.75;56.81;99274.55;1641137;85;21166;-69
2021/03/17 10:30:48;;;;;;;21.50;6.20;;;;;;;6.72;56.65;99278.19;1663720;84;21059;-70
2021/03/17 10:33:23;;;;;;;10.75;5.22;;;;;;;6.72;56.87;99278.19;1644480;85;21476;-70
2021/03/17 10:35:52;;;;;;;15.70;5.70;;;;;;;6.76;56.97;99276.75;1634194;86;21811;-70
2021/03/17 10:38:28;;;;;;;16.30;5.30;;;;;;;6.84;56.99;99278.78;1590268;86;21301;-72
2021/03/17 10:40:59;;;;;;;13.15;6.00;;;;;;;6.91;56.79;99284.27;1652664;85;21166;-70
2021/03/17 10:43:32;;;;;;;16.27;6.47;;;;;;;6.93;56.50;99280.82;1660268;85;21859;-67
2021/03/17 10:46:04;;;;;;;20.27;7.53;;;;;;;6.94;56.26;99279.78;1650121;84;21923;-70
2021/03/17 10:48:43;;;;;;;19.75;7.97;;;;;;;6.93;56.48;99277.58;1655797;85;21082;-68
2021/03/17 10:51:15;;;;;;;12.18;5.72;;;;;;;6.96;56.39;99280.42;1651178;85;21094;-71
2021/03/17 10:53:52;;;;;;;13.50;5.53;;;;;;;6.93;56.17;99277.58;1645096;86;21130;-68
2021/03/17 10:56:22;;;;;;;9.88;5.12;;;;;;;6.90;55.88;99284.78;1648694;85;21127;-65
2021/03/17 10:59:01;;;;;;;23.02;8.28;;;;;;;6.80;56.16;99277.51;1638735;86;21094;-65
2021/03/17 11:01:33;;;;;;;16.48;6.85;;;;;;;6.81;56.25;99275.63;1654704;85;21074;-70
2021/03/17 11:04:20;;;;;;;14.13;5.72;;;;;;;6.87;56.52;99277.55;1650479;85;21874;-69
2021/03/17 11:07:01;;;;;;;13.05;5.20;;;;;;;6.92;56.25;99279.14;1648333;85;21090;-65
2021/03/17 11:09:40;;;;;;;12.90;4.58;;;;;;;6.93;56.03;99270.77;1655498;84;21246;-72
2021/03/17 11:12:16;;;;;;;9.73;5.08;;;;;;;6.98;55.72;99273.73;1670831;84;21356;-67
2021/03/17 11:14:53;;;;;;;;;;;;;;;6.96;55.79;99274.45;1655655;86;21094;-69
2021/03/17 11:17:22;;;;;;;16.67;5.70;;;;;;;7.02;55.55;99274.68;1670326;84;20306;-68
2021/03/17 11:20:04;;;;;;;16.30;5.30;;;;;;;6.98;55.23;99267.44;1652308;85;21142;-69
2021/03/17 11:22:38;;;;;;;17.27;5.60;;;;;;;6.96;55.43;99274.97;1639684;85;21374;-70
2021/03/17 11:25:12;;;;;;;16.62;5.10;;;;;;;6.97;55.56;99278.02;1652940;85;21102;-65
2021/03/17 11:27:45;;;;;;;8.50;3.87;;;;;;;7.00;55.36;99269.44;1650963;85;21382;-67
2021/03/17 11:30:15;;;;;;;9.73;4.53;;;;;;;7.00;55.33;99274.88;1642304;86;21078;-68
2021/03/17 11:32:43;;;;;;;11.93;4.22;;;;;;;7.03;55.11;99272.28;1655345;85;21371;-68
2021/03/17 11:35:12;;;;;;;13.85;5.37;;;;;;;7.02;54.87;99270.08;1648535;85;21824;-67
2021/03/17 11:37:42;;;;;;;14.00;4.28;;;;;;;7.05;54.97;99272.39;1663827;85;21317;-69
2021/03/17 11:40:10;;;;;;;11.80;5.17;;;;;;;7.07;54.49;99274.39;1642999;85;21380;-67
2021/03/17 11:42:38;;;;;;;13.40;4.78;;;;;;;6.99;54.46;99273.20;1629757;87;21320;-70
2021/03/17 11:45:10;;;;;;;10.15;4.30;;;;;;;6.91;54.83;99272.02;1665025;83;21059;-70
2021/03/17 11:47:38;;;;;;;19.40;4.60;;;;;;;6.86;55.01;99267.17;1661125;84;21095;-71
2021/03/17 11:50:08;;;;;;;12.03;3.90;;;;;;;6.90;54.87;99275.26;1648891;86;21739;-70
2021/03/17 11:52:37;;;;;;;8.38;3.65;;;;;;;6.91;54.83;99273.38;1630978;85;21146;-71
2021/03/17 11:55:06;;;;;;;10.60;4.60;;;;;;;6.93;54.66;99270.77;1669529;84;21352;-71
2021/03/17 11:57:36;;;;;;;13.03;4.33;;;;;;;6.92;54.39;99269.61;1648116;87;21095;-69
2021/03/17 12:00:16;;;;;;;16.90;4.95;;;;;;;6.84;54.75;99271.14;1652382;85;21110;-65
2021/03/17 12:03:15;;;;;;;16.97;4.90;;;;;;;6.81;55.05;99276.98;1644838;86;21238;-68
2021/03/17 12:05:44;;;;;;;15.75;4.58;;;;;;;6.83;55.02;99277.63;1643915;87;21088;-72